createdAt,value
2022-09-17T00:01:33.899Z,98072.47
2022-09-17T00:04:04.264Z,98057.38
2022-09-17T00:06:34.497Z,98029.03
2022-09-17T00:09:02.593Z,98036.47
2022-09-17T00:11:33.221Z,98037.31
2022-09-17T00:14:04.447Z,98080.78
2022-09-17T00:16:34.653Z,98056.22
2022-09-17T00:19:02.972Z,98055.38
2022-09-17T00:21:31.058Z,98096.03
2022-09-17T00:24:00.783Z,98111.16
2022-09-17T00:26:29.662Z,98114.50
2022-09-17T00:28:59.063Z,98120.31
2022-09-17T00:31:30.335Z,98138.41
2022-09-17T00:33:59.375Z,98166.31
2022-09-17T00:36:27.956Z,98171.28
2022-09-17T00:38:57.771Z,98165.97
2022-09-17T00:41:27.495Z,98173.28
2022-09-17T00:43:57.945Z,98206.50
2022-09-17T00:46:36.838Z,98219.47
2022-09-17T00:49:08.604Z,98212.47
2022-09-17T00:51:40.660Z,98227.06
2022-09-17T00:54:11.888Z,98227.75
2022-09-17T00:56:41.725Z,98196.19
2022-09-17T00:59:09.677Z,98213.47
2022-09-17T01:01:39.295Z,98225.09
2022-09-17T01:04:07.842Z,98276.59
2022-09-17T01:06:42.407Z,98242.38
2022-09-17T01:09:23.066Z,98248.19
2022-09-17T01:12:06.885Z,98249.88
2022-09-17T01:14:47.989Z,98220.59
2022-09-17T01:17:27.512Z,98228.41
2022-09-17T01:20:30.959Z,98254.34
2022-09-17T01:23:23.777Z,98246.38
2022-09-17T01:26:07.215Z,98236.38
2022-09-17T01:28:43.339Z,98250.03
2022-09-17T01:31:36.107Z,98293.22
2022-09-17T01:34:14.399Z,98285.56
2022-09-17T01:37:03.701Z,98245.19
2022-09-17T01:39:41.539Z,98256.00
2022-09-17T01:42:19.339Z,98269.28
2022-09-17T01:44:55.033Z,98270.78
2022-09-17T01:47:28.627Z,98268.13
2022-09-17T01:50:08.665Z,98292.38
2022-09-17T01:52:41.796Z,98328.75
2022-09-17T01:55:15.035Z,98333.09
2022-09-17T01:57:48.929Z,98332.09
2022-09-17T02:00:18.700Z,98311.66
2022-09-17T02:02:51.515Z,98289.88
2022-09-17T02:05:24.991Z,98291.53
2022-09-17T02:07:57.320Z,98327.09
2022-09-17T02:10:28.803Z,98305.50
2022-09-17T02:13:01.002Z,98274.28
2022-09-17T02:15:33.963Z,98290.88
2022-09-17T02:18:08.989Z,98268.28
2022-09-17T02:20:42.352Z,98262.28
2022-09-17T02:23:16.107Z,98298.69
2022-09-17T02:25:51.428Z,98280.25
2022-09-17T02:28:28.760Z,98283.06
2022-09-17T02:30:56.684Z,98264.16
2022-09-17T02:33:27.836Z,98234.06
2022-09-17T02:35:55.999Z,98230.41
2022-09-17T02:38:26.812Z,98197.53
2022-09-17T02:41:03.084Z,98195.03
2022-09-17T02:43:39.679Z,98154.34
2022-09-17T02:46:22.867Z,98145.19
2022-09-17T02:49:13.259Z,98145.03
2022-09-17T02:51:50.061Z,98129.44
2022-09-17T02:54:25.751Z,98119.28
2022-09-17T02:57:05.554Z,98079.44
2022-09-17T02:59:42.403Z,98099.38
2022-09-17T03:02:18.638Z,98088.91
2022-09-17T03:04:50.782Z,98073.31
2022-09-17T03:07:21.103Z,98072.50
2022-09-17T03:09:49.004Z,98065.03
2022-09-17T03:12:17.584Z,98058.72
2022-09-17T03:14:45.921Z,98015.88
2022-09-17T03:17:14.948Z,98016.88
2022-09-17T03:19:42.958Z,98037.16
2022-09-17T03:22:12.790Z,98040.97
2022-09-17T03:24:40.881Z,98039.16
2022-09-17T03:27:08.818Z,98017.22
2022-09-17T03:29:36.826Z,98038.97
2022-09-17T03:32:05.610Z,98023.56
2022-09-17T03:34:33.637Z,97989.34
2022-09-17T03:37:03.141Z,98020.72
2022-09-17T03:39:32.426Z,98002.28
2022-09-17T03:42:00.368Z,97987.69
2022-09-17T03:44:28.426Z,98009.91
2022-09-17T03:46:56.735Z,97986.38
2022-09-17T03:49:24.963Z,97982.41
2022-09-17T03:51:53.298Z,98017.41
2022-09-17T03:54:21.405Z,98008.78
2022-09-17T03:56:50.754Z,97997.31
2022-09-17T03:59:18.674Z,97997.66
2022-09-17T04:01:46.636Z,98020.25
2022-09-17T04:04:14.471Z,98040.31
2022-09-17T04:06:42.521Z,98077.13
2022-09-17T04:09:10.656Z,98099.53
2022-09-17T04:11:39.073Z,98117.78
2022-09-17T04:14:08.342Z,98102.84
2022-09-17T04:16:36.524Z,98096.22
2022-09-17T04:19:04.737Z,98111.81
2022-09-17T04:21:32.701Z,98118.44
2022-09-17T04:24:00.526Z,98134.06
2022-09-17T04:26:28.374Z,98128.75
2022-09-17T04:28:56.446Z,98169.44
2022-09-17T04:31:27.149Z,98166.13
2022-09-17T04:33:55.308Z,98165.28
2022-09-17T04:36:23.278Z,98184.25
2022-09-17T04:38:51.418Z,98196.03
2022-09-17T04:41:19.527Z,98204.81
2022-09-17T04:43:47.711Z,98184.91
2022-09-17T04:46:16.887Z,98195.53
2022-09-17T04:48:46.226Z,98207.47
2022-09-17T04:51:14.265Z,98208.47
2022-09-17T04:53:42.136Z,98188.56
2022-09-17T04:56:10.696Z,98188.56
2022-09-17T04:58:39.319Z,98160.97
2022-09-17T05:01:07.415Z,98183.41
2022-09-17T05:03:35.294Z,98154.00
2022-09-17T05:06:04.741Z,98139.38
2022-09-17T05:08:32.650Z,98141.88
2022-09-17T05:11:00.592Z,98104.84
2022-09-17T05:13:28.451Z,98079.28
2022-09-17T05:15:57.546Z,98073.00
2022-09-17T05:18:26.277Z,98062.03
2022-09-17T05:20:54.290Z,98085.94
2022-09-17T05:23:23.490Z,98090.25
2022-09-17T05:25:52.820Z,98100.19
2022-09-17T05:28:20.955Z,98135.75
2022-09-17T05:30:48.880Z,98164.78
2022-09-17T05:33:16.863Z,98218.94
2022-09-17T05:35:45.446Z,98233.38
2022-09-17T05:38:13.519Z,98254.16
2022-09-17T05:40:42.780Z,98333.56
2022-09-17T05:43:19.107Z,98388.78
2022-09-17T05:45:47.052Z,98401.25
2022-09-17T05:48:16.137Z,98418.53
2022-09-17T05:50:44.382Z,98427.84
2022-09-17T05:53:14.000Z,98408.88
2022-09-17T05:55:43.407Z,98417.53
2022-09-17T05:58:13.026Z,98421.69
2022-09-17T06:00:41.820Z,98448.47
2022-09-17T06:03:10.371Z,98479.72
2022-09-17T06:05:38.846Z,98498.00
2022-09-17T06:08:07.116Z,98548.78
2022-09-17T06:10:37.386Z,98568.88
2022-09-17T06:13:06.785Z,98592.19
2022-09-17T06:15:34.793Z,98624.84
2022-09-17T06:18:05.205Z,98678.59
2022-09-17T06:20:33.717Z,98708.91
2022-09-17T06:23:01.604Z,98751.22
2022-09-17T06:25:29.503Z,98761.72
2022-09-17T06:27:57.491Z,98773.03
2022-09-17T06:30:29.587Z,98809.84
2022-09-17T06:33:00.596Z,98826.00
2022-09-17T06:35:28.598Z,98876.06
2022-09-17T06:37:56.673Z,98917.91
2022-09-17T06:40:27.756Z,98981.75
2022-09-17T06:42:58.631Z,98988.78
2022-09-17T06:45:27.008Z,99048.50
2022-09-17T06:47:56.475Z,99117.25
2022-09-17T06:50:25.449Z,99183.03
2022-09-17T06:52:54.796Z,99209.06
2022-09-17T06:55:23.326Z,99242.16
2022-09-17T06:57:51.227Z,99253.50
2022-09-17T07:00:19.615Z,99209.06
2022-09-17T07:02:57.840Z,99200.25
2022-09-17T07:05:26.292Z,99230.09
2022-09-17T07:07:54.599Z,99283.06
2022-09-17T07:10:23.371Z,99326.34
2022-09-17T07:12:51.220Z,99336.34
2022-09-17T07:15:19.366Z,99438.69
2022-09-17T07:17:47.836Z,99535.06
2022-09-17T07:20:17.575Z,99621.41
2022-09-17T07:22:45.579Z,99633.47
2022-09-17T07:25:16.063Z,99797.22
2022-09-17T07:27:43.950Z,99886.88
2022-09-17T07:30:13.293Z,99933.28
2022-09-17T07:32:41.297Z,99899.28
2022-09-17T07:35:09.834Z,99821.97
2022-09-17T07:37:39.146Z,99866.94
2022-09-17T07:40:08.789Z,99870.75
2022-09-17T07:42:36.830Z,99895.59
2022-09-17T07:45:06.806Z,99889.72
2022-09-17T07:47:40.358Z,99905.47
2022-09-17T07:50:09.959Z,99987.34
2022-09-17T07:52:39.612Z,100015.88
2022-09-17T07:55:08.308Z,100035.16
2022-09-17T07:57:36.746Z,100057.41
2022-09-17T08:00:05.738Z,100014.03
2022-09-17T08:02:33.914Z,99998.59
2022-09-17T08:05:01.921Z,100020.25
2022-09-17T08:07:29.733Z,100072.56
2022-09-17T08:09:59.127Z,100146.91
2022-09-17T08:12:26.870Z,100204.47
2022-09-17T08:14:54.683Z,100233.38
2022-09-17T08:17:22.649Z,100341.53
2022-09-17T08:19:50.561Z,100515.59
2022-09-17T08:22:18.456Z,100681.97
2022-09-17T08:24:50.522Z,100708.66
2022-09-17T08:27:23.127Z,100831.25
2022-09-17T08:29:51.748Z,100949.47
2022-09-17T08:32:19.729Z,100975.50
2022-09-17T08:34:47.506Z,100973.78
2022-09-17T08:37:15.397Z,100926.53
2022-09-17T08:39:43.541Z,100918.63
2022-09-17T08:42:19.319Z,100910.69
2022-09-17T08:44:52.056Z,100825.59
2022-09-17T08:47:26.530Z,100719.50
2022-09-17T08:49:57.047Z,100694.25
2022-09-17T08:52:55.041Z,100604.19
2022-09-17T08:55:37.475Z,100742.56
2022-09-17T08:58:41.223Z,101018.34
2022-09-17T09:01:19.575Z,101043.94
2022-09-17T09:04:09.604Z,101013.25
2022-09-17T09:06:43.732Z,101071.25
2022-09-17T09:09:15.090Z,101243.94
2022-09-17T09:11:45.003Z,101400.66
2022-09-17T09:14:20.352Z,101477.91
2022-09-17T09:16:50.793Z,101457.63
2022-09-17T09:19:25.959Z,101450.69
2022-09-17T09:22:05.328Z,101410.72
2022-09-17T09:24:42.155Z,101546.41
2022-09-17T09:27:18.885Z,101674.09
2022-09-17T09:30:03.462Z,101701.22
2022-09-17T09:32:47.543Z,101766.53
2022-09-17T09:35:19.530Z,101690.97
2022-09-17T09:37:55.034Z,101511.13
2022-09-17T09:40:41.605Z,101369.34
2022-09-17T09:43:19.138Z,101431.72
2022-09-17T09:46:00.432Z,101557.63
2022-09-17T09:48:39.025Z,101513.22
2022-09-17T09:51:18.457Z,101447.59
2022-09-17T09:54:04.476Z,101502.91
2022-09-17T09:56:50.419Z,101473.97
2022-09-17T09:59:20.480Z,101260.25
2022-09-17T10:01:48.751Z,101231.06
2022-09-17T10:04:22.311Z,101157.28
2022-09-17T10:06:53.395Z,101034.31
2022-09-17T10:09:22.711Z,100932.53
2022-09-17T10:12:06.196Z,100788.88
2022-09-17T10:14:36.164Z,100767.69
2022-09-17T10:17:21.855Z,100665.28
2022-09-17T10:20:20.740Z,100540.81
2022-09-17T10:22:50.754Z,100399.88
2022-09-17T10:25:32.824Z,100319.25
2022-09-17T10:28:03.764Z,100292.34
2022-09-17T10:30:32.056Z,100314.88
2022-09-17T10:33:28.597Z,100476.47
2022-09-17T10:36:10.022Z,100628.16
2022-09-17T10:38:40.023Z,100715.56
2022-09-17T10:41:13.891Z,100697.22
2022-09-17T10:43:42.854Z,100725.16
2022-09-17T10:46:15.333Z,100749.03
2022-09-17T10:48:46.354Z,100758.63
2022-09-17T10:51:24.746Z,100796.81
2022-09-17T10:54:07.390Z,100811.91
2022-09-17T10:56:37.454Z,100776.84
2022-09-17T10:59:37.391Z,100680.28
2022-09-17T11:02:28.290Z,100558.72
2022-09-17T11:05:06.998Z,100408.38
2022-09-17T11:07:44.291Z,100275.56
2022-09-17T11:10:23.116Z,100276.97
2022-09-17T11:13:07.254Z,100272.47
2022-09-17T11:15:52.854Z,100346.56
2022-09-17T11:18:36.882Z,100432.47
2022-09-17T11:21:19.273Z,100468.13
2022-09-17T11:24:28.226Z,100661.47
2022-09-17T11:27:03.598Z,100829.16
2022-09-17T11:30:03.487Z,100949.19
2022-09-17T11:32:48.456Z,101007.63
2022-09-17T11:35:21.576Z,101083.16
2022-09-17T11:37:59.100Z,101181.69
2022-09-17T11:40:37.939Z,101337.38
2022-09-17T11:43:17.281Z,101468.75
2022-09-17T11:45:54.713Z,101577.16
2022-09-17T11:48:27.344Z,101621.97
2022-09-17T11:51:00.279Z,101665.16
2022-09-17T11:53:38.106Z,101638.72
2022-09-17T11:56:16.659Z,101596.16
2022-09-17T11:58:49.667Z,101485.50
2022-09-17T12:01:23.307Z,101534.16
2022-09-17T12:03:55.863Z,101550.78
2022-09-17T12:06:33.882Z,101703.31
2022-09-17T12:09:10.854Z,101607.66
2022-09-17T12:11:47.146Z,101567.09
2022-09-17T12:14:22.278Z,101518.88
2022-09-17T12:16:54.293Z,101515.31
2022-09-17T12:19:28.713Z,101448.50
2022-09-17T12:22:00.494Z,101332.28
2022-09-17T12:24:30.370Z,101259.19
2022-09-17T12:27:28.950Z,101137.25
2022-09-17T12:30:12.275Z,101030.97
2022-09-17T12:33:09.528Z,100851.94
2022-09-17T12:36:07.013Z,100636.47
2022-09-17T12:39:03.251Z,100390.72
2022-09-17T12:41:42.344Z,100200.00
2022-09-17T12:44:31.005Z,100061.16
2022-09-17T12:47:18.118Z,99890.41
2022-09-17T12:50:00.778Z,99729.03
2022-09-17T12:52:40.689Z,99676.59
2022-09-17T12:55:24.852Z,99623.53
2022-09-17T12:58:01.079Z,99603.47
2022-09-17T13:00:36.882Z,99627.03
2022-09-17T13:03:19.689Z,99664.16
2022-09-17T13:06:20.112Z,99739.16
2022-09-17T13:09:17.568Z,99857.22
2022-09-17T13:12:09.756Z,99959.41
2022-09-17T13:15:04.722Z,100080.72
2022-09-17T13:17:40.752Z,100201.94
2022-09-17T13:20:18.876Z,100276.19
2022-09-17T13:22:48.934Z,100284.22
2022-09-17T13:25:20.105Z,100292.66
2022-09-17T13:27:50.354Z,100282.22
2022-09-17T13:30:19.108Z,100309.31
2022-09-17T13:32:57.974Z,100314.69
2022-09-17T13:35:52.934Z,100355.56
2022-09-17T13:38:24.459Z,100367.69
2022-09-17T13:40:53.546Z,100354.88
2022-09-17T13:43:28.036Z,100325.28
2022-09-17T13:46:15.634Z,100218.28
2022-09-17T13:48:51.925Z,100098.91
2022-09-17T13:51:51.758Z,100006.25
2022-09-17T13:54:22.453Z,99919.63
2022-09-17T13:57:07.163Z,99822.31
2022-09-17T13:59:37.399Z,99717.19
2022-09-17T14:02:36.675Z,99664.91
2022-09-17T14:05:33.801Z,99627.03
2022-09-17T14:08:14.122Z,99617.88
2022-09-17T14:10:43.876Z,99615.50
2022-09-17T14:13:42.546Z,99575.19
2022-09-17T14:16:36.224Z,99521.97
2022-09-17T14:19:19.547Z,99510.09
2022-09-17T14:22:00.744Z,99492.53
2022-09-17T14:24:35.438Z,99447.66
2022-09-17T14:27:15.914Z,99471.63
2022-09-17T14:30:07.760Z,99467.44
2022-09-17T14:32:42.430Z,99440.31
2022-09-17T14:35:20.113Z,99381.47
2022-09-17T14:37:55.938Z,99378.31
2022-09-17T14:40:25.340Z,99360.09
2022-09-17T14:43:00.486Z,99342.72
2022-09-17T14:45:32.496Z,99326.94
2022-09-17T14:48:20.829Z,99306.72
2022-09-17T14:50:48.811Z,99292.88
2022-09-17T14:53:19.839Z,99260.13
2022-09-17T14:55:49.447Z,99223.19
2022-09-17T14:58:32.172Z,99235.06
2022-09-17T15:01:00.359Z,99230.72
2022-09-17T15:03:28.573Z,99203.94
2022-09-17T15:05:56.565Z,99165.56
2022-09-17T15:08:29.528Z,99151.03
2022-09-17T15:10:59.981Z,99124.16
2022-09-17T15:13:30.004Z,99104.78
2022-09-17T15:16:02.142Z,99079.88
2022-09-17T15:18:41.072Z,99075.56
2022-09-17T15:21:24.427Z,99075.38
2022-09-17T15:23:59.292Z,99060.03
2022-09-17T15:26:33.252Z,99056.38
2022-09-17T15:29:02.598Z,99062.53
2022-09-17T15:31:31.334Z,99047.69
2022-09-17T15:34:01.014Z,99033.16
2022-09-17T15:36:31.769Z,99021.16
2022-09-17T15:39:01.138Z,99017.50
2022-09-17T15:41:33.202Z,99006.25
2022-09-17T15:44:30.424Z,99031.34
2022-09-17T15:47:34.683Z,99059.03
2022-09-17T15:50:14.015Z,99083.38
2022-09-17T15:52:44.495Z,99097.13
2022-09-17T15:55:35.455Z,99120.81
2022-09-17T15:58:06.043Z,99133.50
2022-09-17T16:00:34.030Z,99122.78
2022-09-17T16:04:02.062Z,99176.22
2022-09-17T16:06:40.088Z,99175.41
2022-09-17T16:09:53.065Z,99162.53
2022-09-17T16:12:24.621Z,99139.84
2022-09-17T16:14:53.911Z,99124.97
2022-09-17T16:17:24.882Z,99132.81
2022-09-17T16:19:53.061Z,99121.31
2022-09-17T16:22:20.974Z,99172.06
2022-09-17T16:24:48.817Z,99139.84
2022-09-17T16:27:20.619Z,99150.50
2022-09-17T16:29:56.094Z,99157.19
2022-09-17T16:32:26.276Z,99146.84
2022-09-17T16:34:54.103Z,99125.06
2022-09-17T16:37:22.155Z,99167.88
2022-09-17T16:39:50.626Z,99177.22
2022-09-17T16:42:18.726Z,99196.25
2022-09-17T16:44:46.813Z,99172.88
2022-09-17T16:47:16.199Z,99120.28
2022-09-17T16:49:44.144Z,99172.22
2022-09-17T16:52:12.196Z,99146.31
2022-09-17T16:54:40.145Z,99114.13
2022-09-17T16:57:08.038Z,99112.44
2022-09-17T16:59:36.061Z,99107.41
2022-09-17T17:02:04.098Z,99057.53
2022-09-17T17:04:33.348Z,99051.66
2022-09-17T17:07:02.512Z,99019.47
2022-09-17T17:09:30.376Z,98980.56
2022-09-17T17:11:58.249Z,98933.22
2022-09-17T17:14:29.123Z,98900.88
2022-09-17T17:16:57.101Z,98888.53
2022-09-17T17:19:26.109Z,98859.16
2022-09-17T17:21:55.909Z,98827.34
2022-09-17T17:24:26.558Z,98788.19
2022-09-17T17:26:54.434Z,98765.84
2022-09-17T17:29:22.410Z,98745.84
2022-09-17T17:31:51.064Z,98748.50
2022-09-17T17:34:22.022Z,98750.81
2022-09-17T17:36:50.855Z,98776.19
2022-09-17T17:39:20.132Z,98793.50
2022-09-17T17:41:51.672Z,98795.50
2022-09-17T17:44:24.133Z,98792.69
2022-09-17T17:46:52.150Z,98801.84
2022-09-17T17:49:20.063Z,98807.19
2022-09-17T17:51:49.658Z,98818.66
2022-09-17T17:54:21.589Z,98822.00
2022-09-17T17:56:50.742Z,98811.69
2022-09-17T17:59:18.696Z,98816.16
2022-09-17T18:01:46.809Z,98807.50
2022-09-17T18:04:15.821Z,98790.84
2022-09-17T18:06:44.150Z,98817.00
2022-09-17T18:09:12.583Z,98805.84
2022-09-17T18:11:40.773Z,98818.66
2022-09-17T18:14:12.980Z,98844.16
2022-09-17T18:16:41.578Z,98812.84
2022-09-17T18:19:11.653Z,98805.84
2022-09-17T18:21:39.973Z,98787.16
2022-09-17T18:24:07.987Z,98767.53
2022-09-17T18:26:36.053Z,98749.66
2022-09-17T18:29:07.793Z,98721.47
2022-09-17T18:31:37.905Z,98704.50
2022-09-17T18:34:08.414Z,98720.31
2022-09-17T18:36:37.872Z,98685.53
2022-09-17T18:39:44.505Z,98678.69
2022-09-17T18:41:55.424Z,98650.88
2022-09-17T18:44:23.291Z,98615.06
2022-09-17T18:46:52.726Z,98594.94
2022-09-17T18:49:22.512Z,98557.97
2022-09-17T18:51:50.442Z,98534.38
2022-09-17T18:54:18.310Z,98498.91
2022-09-17T18:56:46.588Z,98481.59
2022-09-17T18:59:14.366Z,98436.53
2022-09-17T19:01:42.284Z,98420.41
2022-09-17T19:04:11.876Z,98382.31
2022-09-17T19:06:39.713Z,98358.88
2022-09-17T19:09:07.731Z,98334.13
2022-09-17T19:11:36.477Z,98316.66
2022-09-17T19:14:04.601Z,98274.94
2022-09-17T19:16:32.564Z,98276.09
2022-09-17T19:19:00.635Z,98270.78
2022-09-17T19:21:30.159Z,98276.09
2022-09-17T19:23:59.266Z,98276.09
2022-09-17T19:26:28.447Z,98230.09
2022-09-17T19:28:58.701Z,98198.72
2022-09-17T19:31:27.680Z,98183.94
2022-09-17T19:33:56.891Z,98166.63
2022-09-17T19:36:24.856Z,98127.13
2022-09-17T19:38:54.250Z,98126.13
2022-09-17T19:41:25.226Z,98107.88
2022-09-17T19:43:54.236Z,98093.56
2022-09-17T19:46:25.500Z,98088.91
2022-09-17T19:48:55.911Z,98095.94
2022-09-17T19:51:25.591Z,98090.91
2022-09-17T19:53:54.951Z,98096.88
2022-09-17T19:56:27.172Z,98087.59
2022-09-17T19:58:55.206Z,98087.59
2022-09-17T20:01:23.352Z,98110.69
2022-09-17T20:03:54.669Z,98119.16
2022-09-17T20:06:23.481Z,98133.75
2022-09-17T20:08:53.114Z,98126.97
2022-09-17T20:11:24.283Z,98141.72
2022-09-17T20:13:57.455Z,98148.72
2022-09-17T20:16:25.826Z,98145.06
2022-09-17T20:18:53.725Z,98149.53
2022-09-17T20:21:24.117Z,98153.03
2022-09-17T20:23:52.746Z,98143.91
2022-09-17T20:26:22.141Z,98140.25
2022-09-17T20:28:53.943Z,98150.03
2022-09-17T20:31:23.941Z,98165.81
2022-09-17T20:33:53.143Z,98161.16
2022-09-17T20:36:26.763Z,98157.84
2022-09-17T20:39:11.557Z,98147.03
2022-09-17T20:41:43.412Z,98132.44
2022-09-17T20:44:11.515Z,98108.22
2022-09-17T20:46:42.192Z,98080.09
2022-09-17T20:49:12.473Z,98040.28
2022-09-17T20:51:40.422Z,98000.31
2022-09-17T20:54:08.770Z,97991.03
2022-09-17T20:56:37.260Z,97961.97
2022-09-17T20:59:14.358Z,97935.94
2022-09-17T21:01:45.176Z,97894.19
2022-09-17T21:04:15.983Z,97884.56
2022-09-17T21:06:44.764Z,97827.50
2022-09-17T21:09:16.139Z,97810.28
2022-09-17T21:11:44.747Z,97771.69
2022-09-17T21:14:15.817Z,97764.72
2022-09-17T21:16:44.379Z,97761.78
2022-09-17T21:19:16.275Z,97732.25
2022-09-17T21:21:48.366Z,97657.59
2022-09-17T21:24:16.400Z,97633.41
2022-09-17T21:26:45.801Z,97667.50
2022-09-17T21:29:15.278Z,97655.59
2022-09-17T21:31:43.188Z,97617.69
2022-09-17T21:34:13.123Z,97585.88
2022-09-17T21:36:43.492Z,97563.25
2022-09-17T21:39:13.801Z,97572.50
2022-09-17T21:41:42.962Z,97599.63
2022-09-17T21:44:12.344Z,97597.78
2022-09-17T21:46:42.990Z,97599.66
2022-09-17T21:49:13.519Z,97610.22
2022-09-17T21:51:43.103Z,97606.13
2022-09-17T21:54:13.019Z,97630.13
2022-09-17T21:56:43.513Z,97631.44
2022-09-17T21:59:13.911Z,97606.94
2022-09-17T22:01:47.037Z,97616.56
2022-09-17T22:04:17.498Z,97614.53
2022-09-17T22:06:46.993Z,97579.44
2022-09-17T22:09:17.555Z,97589.53
2022-09-17T22:11:45.894Z,97580.09
2022-09-17T22:14:18.032Z,97553.66
2022-09-17T22:16:50.503Z,97514.94
2022-09-17T22:19:20.562Z,97512.94
2022-09-17T22:21:51.373Z,97501.50
2022-09-17T22:24:21.234Z,97549.34
2022-09-17T22:26:56.608Z,97513.75
2022-09-17T22:29:25.965Z,97482.97
2022-09-17T22:31:55.497Z,97463.31
2022-09-17T22:34:25.891Z,97456.88
2022-09-17T22:36:54.020Z,97458.34
2022-09-17T22:39:22.516Z,97435.88
2022-09-17T22:41:51.066Z,97416.03
2022-09-17T22:44:24.688Z,97359.50
2022-09-17T22:46:53.118Z,97361.63
2022-09-17T22:49:22.560Z,97358.44
2022-09-17T22:51:50.556Z,97328.78
2022-09-17T22:54:19.493Z,97336.31
2022-09-17T22:56:48.712Z,97317.50
2022-09-17T22:59:18.290Z,97284.94
2022-09-17T23:01:46.425Z,97265.09
2022-09-17T23:04:14.378Z,97253.22
2022-09-17T23:06:44.403Z,97250.13
2022-09-17T23:09:13.805Z,97268.56
2022-09-17T23:11:41.676Z,97233.56
2022-09-17T23:14:12.450Z,97203.03
2022-09-17T23:16:42.821Z,97204.16
2022-09-17T23:19:11.798Z,97178.41
2022-09-17T23:21:39.971Z,97135.81
2022-09-17T23:24:10.023Z,97102.19
2022-09-17T23:26:38.119Z,97096.19
2022-09-17T23:29:06.203Z,97081.03
2022-09-17T23:31:35.791Z,97048.34
2022-09-17T23:34:05.221Z,97041.41
2022-09-17T23:36:35.734Z,97019.31
2022-09-17T23:39:04.529Z,97004.47
2022-09-17T23:41:35.731Z,96981.44
2022-09-17T23:44:05.462Z,96991.94
2022-09-17T23:46:35.691Z,96982.38
2022-09-17T23:49:04.601Z,96985.72
2022-09-17T23:51:37.100Z,97042.09
2022-09-17T23:54:07.059Z,97031.53
2022-09-17T23:56:36.719Z,97014.03
2022-09-17T23:59:05.273Z,97001.34
